Time;durP1;ratioP1;P1;durP2;ratioP2;P2;SDS_P1;SDS_P2;PMS_P1;PMS_P2;Temp;Humidity;BMP_temperature;BMP_pressure;BME280_temperature;BME280_humidity;BME280_pressure;Samples;Min_cycle;Max_cycle;Signal;HPM_P1;HPM_P2
2021/09/11 00:01:21;;;;;;;5.50;2.38;;;20.20;99.90;;;;;;4993524;28;20209;-67
2021/09/11 00:03:49;;;;;;;4.45;3.05;;;20.30;99.90;;;;;;4993549;28;20750;-67
2021/09/11 00:06:16;;;;;;;5.75;3.60;;;20.40;99.90;;;;;;4993887;28;20201;-67
2021/09/11 00:08:43;;;;;;;5.53;4.00;;;20.40;99.90;;;;;;4992824;28;20279;-67
2021/09/11 00:11:10;;;;;;;5.00;4.05;;;20.40;99.90;;;;;;4993347;28;20209;-67
2021/09/11 00:13:38;;;;;;;5.85;3.47;;;20.30;99.90;;;;;;4992960;28;20209;-66
2021/09/11 00:16:05;;;;;;;4.63;4.00;;;20.40;99.90;;;;;;4993137;28;20312;-66
2021/09/11 00:18:32;;;;;;;5.00;4.07;;;20.40;99.90;;;;;;4993126;28;20209;-67
2021/09/11 00:21:01;;;;;;;8.13;4.57;;;20.40;99.90;;;;;;4993122;28;20263;-66
2021/09/11 00:23:28;;;;;;;5.45;3.65;;;20.40;99.90;;;;;;4992896;28;20205;-67
2021/09/11 00:25:56;;;;;;;7.32;4.40;;;20.40;99.90;;;;;;4992780;28;20787;-66
2021/09/11 00:28:23;;;;;;;7.10;4.22;;;20.40;99.90;;;;;;4992807;28;20243;-67
2021/09/11 00:30:50;;;;;;;8.30;4.72;;;20.30;99.90;;;;;;4993272;28;20209;-66
2021/09/11 00:33:17;;;;;;;4.57;4.00;;;20.30;99.90;;;;;;4993224;28;20209;-66
2021/09/11 00:35:44;;;;;;;6.28;4.32;;;20.30;99.90;;;;;;4992729;28;20263;-66
2021/09/11 00:38:12;;;;;;;4.07;3.67;;;20.30;99.90;;;;;;4992571;28;20208;-67
2021/09/11 00:40:39;;;;;;;8.32;4.65;;;20.30;99.90;;;;;;4992441;28;20809;-66
2021/09/11 00:43:06;;;;;;;7.00;3.47;;;20.30;99.90;;;;;;4992818;28;20205;-67
2021/09/11 00:45:33;;;;;;;6.50;4.55;;;20.30;99.90;;;;;;4990797;28;20221;-68
2021/09/11 00:48:00;;;;;;;6.80;4.93;;;20.30;99.90;;;;;;4992134;28;20232;-67
2021/09/11 00:50:27;;;;;;;7.70;5.50;;;20.40;99.90;;;;;;4991918;28;20205;-67
2021/09/11 00:52:55;;;;;;;7.38;4.60;;;20.40;99.90;;;;;;4992633;28;20280;-67
2021/09/11 00:55:24;;;;;;;5.10;4.00;;;20.30;99.90;;;;;;4992224;28;20263;-67
2021/09/11 00:57:51;;;;;;;7.22;4.28;;;20.30;99.90;;;;;;4992713;28;20267;-67
2021/09/11 01:00:19;;;;;;;4.35;3.95;;;20.30;99.90;;;;;;4993024;28;20215;-67
2021/09/11 01:02:46;;;;;;;5.22;4.20;;;20.30;99.90;;;;;;4992265;28;20644;-66
2021/09/11 01:05:14;;;;;;;8.77;6.75;;;20.30;99.90;;;;;;4992508;28;20291;-67
2021/09/11 01:07:42;;;;;;;13.02;8.73;;;20.20;99.90;;;;;;4991768;28;20275;-67
2021/09/11 01:10:10;;;;;;;27.13;21.00;;;20.10;99.90;;;;;;4992073;28;20728;-69
2021/09/11 01:12:39;;;;;;;48.05;40.67;;;20.10;99.90;;;;;;4991865;28;20204;-66
2021/09/11 01:15:09;;;;;;;53.35;47.55;;;20.10;99.90;;;;;;4992251;28;20208;-66
2021/09/11 01:17:36;;;;;;;50.55;44.28;;;20.00;99.90;;;;;;4991688;28;20217;-68
2021/09/11 01:20:04;;;;;;;24.58;22.20;;;19.90;99.90;;;;;;4992346;28;20287;-68
2021/09/11 01:22:31;;;;;;;14.88;12.30;;;19.90;99.90;;;;;;4991956;28;20213;-66
2021/09/11 01:25:01;;;;;;;7.20;6.55;;;19.80;99.90;;;;;;4991739;28;20209;-67
2021/09/11 01:27:28;;;;;;;7.65;6.20;;;19.80;99.90;;;;;;4991571;28;20228;-67
2021/09/11 01:29:57;;;;;;;8.40;6.00;;;19.80;99.90;;;;;;4991530;28;20209;-67
2021/09/11 01:32:24;;;;;;;6.53;4.75;;;19.80;99.90;;;;;;4991502;28;20209;-68
2021/09/11 01:34:52;;;;;;;4.30;3.50;;;19.70;99.90;;;;;;4991542;28;20669;-66
2021/09/11 01:37:19;;;;;;;3.70;3.25;;;19.70;99.90;;;;;;4991839;28;20209;-68
2021/09/11 01:39:48;;;;;;;6.38;3.75;;;19.70;99.90;;;;;;4991938;28;20209;-67
2021/09/11 01:42:18;;;;;;;7.05;3.15;;;19.80;99.90;;;;;;4992140;28;20287;-68
2021/09/11 01:44:46;;;;;;;3.95;3.28;;;19.90;99.90;;;;;;4991679;28;20209;-68
2021/09/11 01:47:14;;;;;;;5.07;3.03;;;19.90;99.90;;;;;;4991490;28;20319;-67
2021/09/11 01:49:41;;;;;;;6.00;3.15;;;19.90;99.90;;;;;;4991518;28;20271;-66
2021/09/11 01:52:08;;;;;;;4.18;3.22;;;19.80;99.90;;;;;;4991120;28;20201;-66
2021/09/11 01:54:36;;;;;;;5.03;3.85;;;19.80;99.90;;;;;;4991216;28;20296;-66
2021/09/11 01:57:03;;;;;;;8.50;2.67;;;19.80;99.90;;;;;;4991370;28;20268;-67
2021/09/11 01:59:31;;;;;;;4.53;2.92;;;19.80;99.90;;;;;;4991310;28;20204;-68
2021/09/11 02:01:58;;;;;;;4.90;2.95;;;19.80;99.90;;;;;;4991234;28;20217;-68
2021/09/11 02:04:25;;;;;;;8.75;3.25;;;19.80;99.90;;;;;;4990968;28;20208;-68
2021/09/11 02:06:52;;;;;;;4.47;4.07;;;19.80;99.90;;;;;;4991188;28;20208;-69
2021/09/11 02:09:19;;;;;;;3.83;3.28;;;19.90;99.90;;;;;;4991535;28;20255;-68
2021/09/11 02:11:46;;;;;;;7.45;4.20;;;19.90;99.90;;;;;;4990465;28;20279;-68
2021/09/11 02:14:14;;;;;;;4.55;2.80;;;19.90;99.90;;;;;;4990854;28;20205;-68
2021/09/11 02:16:42;;;;;;;4.13;2.85;;;19.90;99.90;;;;;;4990775;28;20213;-67
2021/09/11 02:19:09;;;;;;;4.05;3.03;;;20.00;99.90;;;;;;4990296;28;20263;-68
2021/09/11 02:21:36;;;;;;;4.30;3.88;;;20.10;99.90;;;;;;4990451;28;20204;-68
2021/09/11 02:24:03;;;;;;;3.40;3.10;;;20.00;99.90;;;;;;4990739;28;20735;-68
2021/09/11 02:26:31;;;;;;;5.47;3.33;;;19.80;99.90;;;;;;4990445;28;20209;-67
2021/09/11 02:28:58;;;;;;;6.35;3.33;;;19.80;99.90;;;;;;4987111;28;20277;-68
2021/09/11 02:31:25;;;;;;;5.50;4.15;;;19.80;99.90;;;;;;4989099;28;20213;-68
2021/09/11 02:33:53;;;;;;;4.95;3.22;;;19.80;99.90;;;;;;4990775;28;20641;-68
2021/09/11 02:36:20;;;;;;;3.60;2.63;;;19.90;99.90;;;;;;4990564;28;20287;-68
2021/09/11 02:38:47;;;;;;;4.38;3.22;;;20.00;99.90;;;;;;4991155;28;20275;-68
2021/09/11 02:41:15;;;;;;;5.15;2.80;;;20.00;99.90;;;;;;4990631;28;20216;-68
2021/09/11 02:43:42;;;;;;;5.38;4.07;;;20.00;99.90;;;;;;4990365;28;20236;-67
2021/09/11 02:46:09;;;;;;;6.30;3.00;;;19.90;99.90;;;;;;4990691;28;20205;-68
2021/09/11 02:48:36;;;;;;;4.43;2.90;;;19.90;99.90;;;;;;4990031;28;20228;-67
2021/09/11 02:51:04;;;;;;;4.75;3.17;;;19.90;99.90;;;;;;4990486;28;20213;-68
2021/09/11 02:53:31;;;;;;;7.00;3.15;;;19.90;99.90;;;;;;4989906;28;20255;-68
2021/09/11 02:55:58;;;;;;;3.55;2.78;;;19.80;99.90;;;;;;4990550;28;20213;-68
2021/09/11 02:58:25;;;;;;;5.90;2.97;;;19.80;99.90;;;;;;4990122;28;20251;-67
2021/09/11 03:00:52;;;;;;;4.50;2.88;;;19.80;99.90;;;;;;4990685;28;20213;-68
2021/09/11 03:03:19;;;;;;;4.47;2.85;;;19.90;99.90;;;;;;4990411;28;20265;-67
2021/09/11 03:05:46;;;;;;;3.95;2.65;;;19.90;99.90;;;;;;4987714;28;20252;-67
2021/09/11 03:08:15;;;;;;;3.78;3.00;;;19.90;99.90;;;;;;4990585;28;20291;-65
2021/09/11 03:10:42;;;;;;;4.07;2.70;;;19.80;99.90;;;;;;4990055;28;20211;-66
2021/09/11 03:13:09;;;;;;;5.45;2.85;;;19.80;99.90;;;;;;4993366;28;20208;-66
2021/09/11 03:15:36;;;;;;;3.67;3.08;;;19.80;99.90;;;;;;4993699;28;20259;-66
2021/09/11 03:18:03;;;;;;;4.38;2.92;;;19.70;99.90;;;;;;4993885;28;20205;-67
2021/09/11 03:20:30;;;;;;;6.88;3.42;;;19.60;99.90;;;;;;4993015;28;20265;-66
2021/09/11 03:22:57;;;;;;;6.82;3.92;;;19.50;99.90;;;;;;4993747;28;20209;-66
2021/09/11 03:25:25;;;;;;;6.15;3.53;;;19.30;99.90;;;;;;4992649;28;20209;-67
2021/09/11 03:27:52;;;;;;;4.18;3.15;;;19.20;99.90;;;;;;4993970;28;20283;-66
2021/09/11 03:30:19;;;;;;;5.55;3.38;;;19.10;99.90;;;;;;4994508;28;20208;-66
2021/09/11 03:32:46;;;;;;;7.82;3.83;;;19.10;99.90;;;;;;4994250;28;20263;-66
2021/09/11 03:35:13;;;;;;;3.92;2.92;;;19.10;99.90;;;;;;4993977;28;20271;-66
2021/09/11 03:37:40;;;;;;;4.75;3.80;;;19.00;99.90;;;;;;4993523;28;20216;-67
2021/09/11 03:40:08;;;;;;;5.75;3.80;;;19.00;99.90;;;;;;4993879;28;20216;-67
2021/09/11 03:42:37;;;;;;;4.45;3.05;;;18.90;99.90;;;;;;4993574;28;20205;-66
2021/09/11 03:45:04;;;;;;;4.78;3.40;;;19.00;99.90;;;;;;4993881;28;20205;-66
2021/09/11 03:47:31;;;;;;;3.92;3.20;;;19.10;99.90;;;;;;4993374;28;20233;-67
2021/09/11 03:49:58;;;;;;;3.47;2.83;;;19.00;99.90;;;;;;4993599;28;20204;-66
2021/09/11 03:52:25;;;;;;;4.78;3.08;;;19.00;99.90;;;;;;4993568;28;20216;-68
2021/09/11 03:54:52;;;;;;;7.88;3.80;;;19.10;99.90;;;;;;4993848;28;20263;-67
2021/09/11 03:57:19;;;;;;;3.65;3.17;;;19.00;99.90;;;;;;4993660;28;20578;-67
2021/09/11 03:59:48;;;;;;;4.95;3.00;;;19.00;99.90;;;;;;4993911;28;20255;-67
2021/09/11 04:02:14;;;;;;;5.18;3.25;;;19.00;99.90;;;;;;4993594;28;20669;-69
2021/09/11 04:04:41;;;;;;;4.45;3.22;;;18.90;99.90;;;;;;4993212;28;20632;-68
2021/09/11 04:07:08;;;;;;;6.28;3.25;;;18.90;99.90;;;;;;4993456;28;20224;-69
2021/09/11 04:09:35;;;;;;;4.45;3.70;;;18.80;99.90;;;;;;4993103;28;20228;-69
2021/09/11 04:12:02;;;;;;;6.93;4.45;;;18.90;99.90;;;;;;4993442;28;20271;-67
2021/09/11 04:14:29;;;;;;;5.82;3.13;;;18.80;99.90;;;;;;4992840;28;20259;-68
2021/09/11 04:16:58;;;;;;;5.97;3.65;;;18.80;99.90;;;;;;4993026;28;20209;-68
2021/09/11 04:19:25;;;;;;;4.32;3.85;;;18.80;99.90;;;;;;4992641;28;20328;-66
2021/09/11 04:21:52;;;;;;;6.95;3.55;;;18.80;99.90;;;;;;4993256;28;20213;-68
2021/09/11 04:24:19;;;;;;;6.75;3.60;;;18.70;99.90;;;;;;4992248;28;20271;-67
2021/09/11 04:26:46;;;;;;;5.30;3.85;;;18.70;99.90;;;;;;4993586;28;20268;-68
2021/09/11 04:29:13;;;;;;;4.72;3.88;;;18.70;99.90;;;;;;4992664;28;20327;-68
2021/09/11 04:31:40;;;;;;;5.43;3.35;;;18.70;99.90;;;;;;4992583;28;20221;-66
2021/09/11 04:34:08;;;;;;;4.38;3.67;;;18.70;99.90;;;;;;4993214;28;20208;-66
2021/09/11 04:36:35;;;;;;;6.47;3.80;;;18.70;99.90;;;;;;4992301;28;20635;-67
2021/09/11 04:39:02;;;;;;;5.55;3.92;;;18.80;99.90;;;;;;4992990;28;20209;-66
2021/09/11 04:41:29;;;;;;;5.45;3.70;;;18.90;99.90;;;;;;4992460;28;20205;-67
2021/09/11 04:43:56;;;;;;;12.18;4.90;;;18.90;99.90;;;;;;4993061;28;20259;-67
2021/09/11 04:46:23;;;;;;;7.32;4.18;;;19.10;99.90;;;;;;4991927;28;20263;-67
2021/09/11 04:48:50;;;;;;;4.47;3.72;;;19.20;99.90;;;;;;4992798;28;20236;-68
2021/09/11 04:51:19;;;;;;;4.00;3.63;;;19.10;99.90;;;;;;4992736;28;20205;-68
2021/09/11 04:53:52;;;;;;;8.52;4.25;;;19.20;99.90;;;;;;4992769;28;20219;-68
2021/09/11 04:56:20;;;;;;;7.03;3.75;;;19.30;99.90;;;;;;4992428;28;20212;-66
2021/09/11 04:58:47;;;;;;;5.80;3.92;;;19.20;99.90;;;;;;4992361;28;20209;-66
2021/09/11 05:01:14;;;;;;;7.50;4.60;;;19.20;99.90;;;;;;4992568;28;20259;-68
2021/09/11 05:03:41;;;;;;;5.53;5.00;;;19.20;99.90;;;;;;4992075;28;20267;-69
2021/09/11 05:06:08;;;;;;;5.30;4.80;;;19.20;99.90;;;;;;4992470;28;20252;-68
2021/09/11 05:08:36;;;;;;;4.30;3.90;;;19.20;99.90;;;;;;4989437;28;20236;-68
2021/09/11 05:11:03;;;;;;;6.35;4.50;;;19.30;99.90;;;;;;4991098;28;20201;-68
2021/09/11 05:13:30;;;;;;;7.28;3.50;;;19.20;99.90;;;;;;4991707;28;20263;-68
2021/09/11 05:15:57;;;;;;;6.10;3.85;;;19.20;99.90;;;;;;4991602;28;20668;-68
2021/09/11 05:18:24;;;;;;;7.88;3.83;;;19.20;99.90;;;;;;4991661;28;20209;-68
2021/09/11 05:20:51;;;;;;;6.35;4.63;;;19.20;99.90;;;;;;4991793;28;20259;-68
2021/09/11 05:23:18;;;;;;;9.95;6.13;;;19.30;99.90;;;;;;4992050;28;20205;-68
2021/09/11 05:25:47;;;;;;;11.20;6.43;;;19.20;99.90;;;;;;4992068;28;20208;-68
2021/09/11 05:28:14;;;;;;;10.55;6.25;;;19.30;99.90;;;;;;4992196;28;20280;-68
2021/09/11 05:30:41;;;;;;;5.85;5.32;;;19.20;99.90;;;;;;4991336;28;20268;-68
2021/09/11 05:33:07;;;;;;;9.30;5.15;;;19.20;99.90;;;;;;4991731;28;20209;-68
2021/09/11 05:35:34;;;;;;;6.00;5.30;;;19.10;99.90;;;;;;4990926;28;20672;-68
2021/09/11 05:38:01;;;;;;;5.72;5.10;;;19.10;99.90;;;;;;4991489;28;20209;-67
2021/09/11 05:40:28;;;;;;;6.65;4.88;;;19.10;99.90;;;;;;4991511;28;20209;-68
2021/09/11 05:42:57;;;;;;;8.10;5.43;;;19.10;99.90;;;;;;4991295;28;20217;-68
2021/09/11 05:45:24;;;;;;;8.57;4.68;;;19.10;99.90;;;;;;4990852;28;20747;-68
2021/09/11 05:47:51;;;;;;;7.82;5.43;;;19.10;99.90;;;;;;4991349;28;20668;-69
2021/09/11 05:50:18;;;;;;;5.10;4.60;;;19.10;99.90;;;;;;4991861;28;20279;-68
2021/09/11 05:52:45;;;;;;;6.30;5.05;;;19.00;99.90;;;;;;4991670;28;20213;-68
2021/09/11 05:55:12;;;;;;;5.43;4.93;;;19.10;99.90;;;;;;4990979;28;20217;-69
2021/09/11 05:57:39;;;;;;;8.80;5.80;;;19.20;99.90;;;;;;4991252;28;20272;-69
2021/09/11 06:00:09;;;;;;;6.75;5.57;;;19.20;99.90;;;;;;4991305;28;20212;-75
2021/09/11 06:02:36;;;;;;;5.43;4.93;;;19.20;99.90;;;;;;4985895;28;20212;-74
2021/09/11 06:05:03;;;;;;;5.78;5.13;;;19.20;99.90;;;;;;4988712;28;20204;-72
2021/09/11 06:07:30;;;;;;;6.13;5.15;;;19.30;99.90;;;;;;4990352;28;20759;-72
2021/09/11 06:09:57;;;;;;;8.25;4.40;;;19.20;99.90;;;;;;4991204;28;20299;-68
2021/09/11 06:12:23;;;;;;;6.13;4.45;;;19.20;99.90;;;;;;4990629;28;20728;-68
2021/09/11 06:14:50;;;;;;;7.00;5.57;;;19.20;99.90;;;;;;4990411;28;20209;-68
2021/09/11 06:17:19;;;;;;;5.30;4.88;;;19.20;99.90;;;;;;4987590;28;20209;-67
2021/09/11 06:19:46;;;;;;;9.10;5.57;;;19.20;99.90;;;;;;4991160;28;20267;-68
2021/09/11 06:22:13;;;;;;;7.70;6.00;;;19.30;99.90;;;;;;4990793;28;20255;-66
2021/09/11 06:24:41;;;;;;;5.68;4.85;;;19.30;99.90;;;;;;4990737;28;20532;-67
2021/09/11 06:27:08;;;;;;;6.22;5.70;;;19.40;99.90;;;;;;4989120;28;20205;-67
2021/09/11 06:29:36;;;;;;;7.60;4.80;;;19.40;99.90;;;;;;4984259;28;20224;-67
2021/09/11 06:32:03;;;;;;;10.07;5.85;;;19.40;99.90;;;;;;4988932;28;20684;-67
2021/09/11 06:34:31;;;;;;;7.00;5.55;;;19.40;99.90;;;;;;4988166;28;20217;-67
2021/09/11 06:36:58;;;;;;;6.32;4.93;;;19.40;99.90;;;;;;4987752;28;20664;-68
2021/09/11 06:39:26;;;;;;;10.40;6.32;;;19.50;99.90;;;;;;4986536;28;20209;-69
2021/09/11 06:41:53;;;;;;;5.72;5.13;;;19.50;99.90;;;;;;4988880;28;20211;-68
2021/09/11 06:44:20;;;;;;;8.52;5.88;;;19.60;99.90;;;;;;4989799;28;20213;-68
2021/09/11 06:46:47;;;;;;;7.57;5.55;;;19.60;99.90;;;;;;4988071;28;20287;-68
2021/09/11 06:49:15;;;;;;;7.97;6.70;;;19.70;99.90;;;;;;4993899;28;20255;-68
2021/09/11 06:51:43;;;;;;;7.93;5.88;;;19.70;99.90;;;;;;4994162;28;20217;-68
2021/09/11 06:54:10;;;;;;;9.20;5.85;;;19.70;99.90;;;;;;4994581;28;20209;-68
2021/09/11 06:56:37;;;;;;;7.63;5.32;;;20.00;99.90;;;;;;4993505;28;20668;-68
2021/09/11 06:59:04;;;;;;;5.88;5.07;;;20.30;99.90;;;;;;4994622;28;20586;-69
2021/09/11 07:01:31;;;;;;;6.00;5.00;;;20.40;99.90;;;;;;4989592;28;20734;-69
2021/09/11 07:03:58;;;;;;;11.57;7.13;;;20.40;99.90;;;;;;4994548;28;20227;-68
2021/09/11 07:06:25;;;;;;;8.77;5.35;;;20.40;99.90;;;;;;4993540;28;20283;-68
2021/09/11 07:08:54;;;;;;;6.95;6.25;;;20.70;99.90;;;;;;4991525;28;20232;-68
2021/09/11 07:11:21;;;;;;;7.03;5.40;;;20.70;99.90;;;;;;4992907;28;20209;-68
2021/09/11 07:13:48;;;;;;;6.40;5.85;;;20.60;99.90;;;;;;4994141;28;20213;-68
2021/09/11 07:16:14;;;;;;;6.18;5.68;;;20.60;99.90;;;;;;4993781;28;20251;-68
2021/09/11 07:18:41;;;;;;;6.13;4.70;;;20.50;99.90;;;;;;4992889;28;20263;-69
2021/09/11 07:21:08;;;;;;;5.93;4.95;;;20.80;99.90;;;;;;4993235;28;20213;-70
2021/09/11 07:23:36;;;;;;;6.82;6.20;;;20.80;99.90;;;;;;4993102;28;20676;-72
2021/09/11 07:26:05;;;;;;;6.07;5.43;;;20.60;99.90;;;;;;4993776;28;20260;-73
2021/09/11 07:28:32;;;;;;;6.18;5.28;;;20.50;99.90;;;;;;4993395;28;20200;-71
2021/09/11 07:30:59;;;;;;;5.47;5.05;;;20.80;99.90;;;;;;4992670;28;20260;-74
2021/09/11 07:33:26;;;;;;;5.78;5.28;;;21.20;99.90;;;;;;4987465;28;20206;-74
2021/09/11 07:35:53;;;;;;;6.85;6.15;;;21.10;99.90;;;;;;4994185;28;20213;-74
2021/09/11 07:38:20;;;;;;;6.55;5.15;;;20.70;99.90;;;;;;4993869;28;20293;-73
2021/09/11 07:40:47;;;;;;;8.82;5.60;;;21.00;99.90;;;;;;4993828;28;20267;-73
2021/09/11 07:43:15;;;;;;;4.93;4.43;;;21.60;99.90;;;;;;4993824;28;20236;-74
2021/09/11 07:45:42;;;;;;;8.05;6.13;;;21.70;99.90;;;;;;4993342;28;20291;-74
2021/09/11 07:48:09;;;;;;;6.53;5.47;;;22.10;99.90;;;;;;4991695;28;20259;-75
2021/09/11 07:50:36;;;;;;;6.10;5.57;;;22.40;99.90;;;;;;4988899;28;20232;-74
2021/09/11 07:53:04;;;;;;;10.63;5.80;;;22.20;99.90;;;;;;4989052;28;20259;-73
2021/09/11 07:55:31;;;;;;;5.78;5.15;;;22.20;99.90;;;;;;4992605;28;20213;-73
2021/09/11 07:57:59;;;;;;;6.85;6.13;;;21.80;99.90;;;;;;4993092;28;20263;-73
2021/09/11 08:00:28;;;;;;;7.07;6.47;;;21.60;99.90;;;;;;4992510;28;21882;-72
2021/09/11 08:02:55;;;;;;;6.38;5.72;;;20.80;99.90;;;;;;4993487;28;20690;-73
2021/09/11 08:05:23;;;;;;;6.05;5.32;;;20.80;99.90;;;;;;4992723;28;20213;-73
2021/09/11 08:07:50;;;;;;;9.63;6.47;;;21.10;99.90;;;;;;4992522;28;20220;-73
2021/09/11 08:10:17;;;;;;;10.68;6.45;;;21.40;99.90;;;;;;4993102;28;20236;-73
2021/09/11 08:12:44;;;;;;;8.18;7.47;;;21.50;99.90;;;;;;4991671;28;20305;-73
2021/09/11 08:15:12;;;;;;;6.43;5.88;;;21.10;99.90;;;;;;4991349;28;20209;-68
2021/09/11 08:17:40;;;;;;;6.72;6.05;;;21.10;99.90;;;;;;4988403;28;20209;-69
2021/09/11 08:20:08;;;;;;;5.75;5.25;;;21.40;99.90;;;;;;4988076;28;20213;-68
2021/09/11 08:22:35;;;;;;;7.82;5.72;;;21.60;99.90;;;;;;4989281;28;20201;-68
2021/09/11 08:25:02;;;;;;;6.22;5.22;;;22.00;99.90;;;;;;4990394;28;20205;-68
2021/09/11 08:27:29;;;;;;;5.28;4.75;;;22.20;99.90;;;;;;4990984;28;20660;-68
2021/09/11 08:29:56;;;;;;;7.65;5.53;;;22.30;99.90;;;;;;4992907;28;20707;-69
2021/09/11 08:32:23;;;;;;;6.20;5.55;;;22.40;99.90;;;;;;4992356;28;20621;-68
2021/09/11 08:34:52;;;;;;;5.70;5.20;;;22.60;99.90;;;;;;4991964;28;20587;-66
2021/09/11 08:37:19;;;;;;;8.05;6.13;;;22.70;99.90;;;;;;4993132;28;20212;-68
2021/09/11 08:39:46;;;;;;;7.50;5.45;;;22.70;99.90;;;;;;4993002;28;20201;-67
2021/09/11 08:42:13;;;;;;;8.60;5.30;;;22.60;99.90;;;;;;4992938;28;20257;-68
2021/09/11 08:44:40;;;;;;;6.15;5.43;;;22.50;99.90;;;;;;4992224;28;20267;-68
2021/09/11 08:47:08;;;;;;;5.60;5.03;;;22.60;99.90;;;;;;4992935;28;20267;-69
2021/09/11 08:49:35;;;;;;;5.53;5.00;;;22.70;99.90;;;;;;4991750;28;20224;-68
2021/09/11 08:52:07;;;;;;;7.07;6.47;;;22.70;99.90;;;;;;4992818;28;20209;-69
2021/09/11 08:54:34;;;;;;;5.68;5.18;;;22.70;99.90;;;;;;4991913;28;20212;-68
2021/09/11 08:57:22;;;;;;;8.93;6.63;;;22.90;99.90;;;;;;4987165;28;20209;-69
2021/09/11 08:59:49;;;;;;;6.05;5.35;;;22.90;99.90;;;;;;4993027;28;20295;-68
2021/09/11 09:02:19;;;;;;;6.55;5.85;;;23.60;99.90;;;;;;4992487;28;20995;-68
2021/09/11 09:04:49;;;;;;;5.70;5.18;;;24.10;99.90;;;;;;4993014;28;20209;-68
2021/09/11 09:07:32;;;;;;;8.90;5.72;;;24.70;99.90;;;;;;4992250;28;20212;-68
2021/09/11 09:10:00;;;;;;;8.88;4.78;;;24.00;99.90;;;;;;4992012;28;20299;-68
2021/09/11 09:12:31;;;;;;;6.72;4.32;;;24.40;99.90;;;;;;4992037;28;20205;-67
2021/09/11 09:15:00;;;;;;;4.78;4.38;;;24.70;99.90;;;;;;4992516;28;20209;-67
2021/09/11 09:17:55;;;;;;;6.65;4.55;;;24.90;99.90;;;;;;4991872;28;20292;-67
2021/09/11 09:20:24;;;;;;;4.68;4.15;;;26.10;99.90;;;;;;4957641;28;20221;-68
2021/09/11 09:23:12;;;;;;;6.30;4.30;;;27.50;99.90;;;;;;4991585;28;20205;-68
2021/09/11 09:25:40;;;;;;;7.63;4.78;;;26.00;99.90;;;;;;4991916;28;20553;-67
2021/09/11 09:28:09;;;;;;;8.90;4.32;;;26.70;99.90;;;;;;4991867;28;20209;-68
2021/09/11 09:30:38;;;;;;;7.03;5.15;;;28.20;99.90;;;;;;4991066;28;20232;-68
2021/09/11 09:33:06;;;;;;;5.03;4.35;;;28.80;99.90;;;;;;4990206;28;20672;-68
2021/09/11 09:35:34;;;;;;;7.32;4.57;;;27.70;99.90;;;;;;4991167;28;20205;-68
2021/09/11 09:38:07;;;;;;;5.75;4.22;;;26.30;99.90;;;;;;4991445;28;20629;-68
2021/09/11 09:40:37;;;;;;;7.30;4.45;;;26.20;99.90;;;;;;4991562;28;20591;-67
2021/09/11 09:43:04;;;;;;;5.82;3.97;;;25.80;99.90;;;;;;4991623;28;20201;-67
2021/09/11 09:45:32;;;;;;;8.02;4.88;;;26.00;99.90;;;;;;4991266;28;20208;-68
2021/09/11 09:48:01;;;;;;;5.93;4.47;;;25.80;99.90;;;;;;4991471;28;20261;-68
2021/09/11 09:50:31;;;;;;;5.78;4.07;;;25.40;99.90;;;;;;4991228;28;20318;-67
2021/09/11 09:53:00;;;;;;;4.82;3.70;;;25.60;99.90;;;;;;4991475;28;20217;-68
2021/09/11 09:55:28;;;;;;;4.00;3.08;;;26.80;99.90;;;;;;4991129;28;20209;-68
2021/09/11 09:57:56;;;;;;;5.60;3.92;;;26.60;99.90;;;;;;4991629;28;20271;-68
2021/09/11 10:00:23;;;;;;;4.35;4.05;;;26.10;99.90;;;;;;4990860;28;20212;-68
2021/09/11 10:02:50;;;;;;;5.20;4.13;;;27.20;99.90;;;;;;4991576;28;20633;-69
2021/09/11 10:05:21;;;;;;;3.65;3.35;;;29.90;99.90;;;;;;4991716;28;20208;-69
2021/09/11 10:07:59;;;;;;;3.97;3.53;;;28.10;99.90;;;;;;4991490;28;20747;-69
2021/09/11 10:10:35;;;;;;;4.78;3.85;;;27.40;99.90;;;;;;4988563;28;20274;-69
2021/09/11 10:13:15;;;;;;;3.60;2.83;;;27.80;99.90;;;;;;4979139;28;20208;-68
2021/09/11 10:15:54;;;;;;;6.13;3.45;;;27.70;99.90;;;;;;4990846;28;20781;-68
2021/09/11 10:18:43;;;;;;;4.05;3.65;;;27.70;99.90;;;;;;4991019;28;20212;-68
2021/09/11 10:21:28;;;;;;;4.82;2.95;;;29.10;99.90;;;;;;4986341;28;20415;-68
2021/09/11 10:24:27;;;;;;;3.83;3.53;;;30.30;99.90;;;;;;4991438;28;20212;-68
2021/09/11 10:26:58;;;;;;;3.35;3.10;;;32.90;99.90;;;;;;4991208;28;20730;-69
2021/09/11 10:29:55;;;;;;;2.92;2.70;;;28.70;99.90;;;;;;4990683;28;20580;-69
2021/09/11 10:32:41;;;;;;;4.80;3.53;;;25.90;99.90;;;;;;4990889;28;20260;-68
2021/09/11 10:35:09;;;;;;;3.97;2.80;;;25.60;99.90;;;;;;4991060;28;20212;-68
2021/09/11 10:37:39;;;;;;;5.03;3.55;;;25.80;99.90;;;;;;4990731;28;20205;-68
2021/09/11 10:40:30;;;;;;;3.30;3.10;;;25.10;99.90;;;;;;4991128;28;20213;-68
2021/09/11 10:43:31;;;;;;;4.35;3.22;;;24.60;99.90;;;;;;4990987;28;20209;-68
2021/09/11 10:46:02;;;;;;;3.92;3.13;;;24.50;99.90;;;;;;4980178;28;20204;-68
2021/09/11 10:48:42;;;;;;;4.00;2.80;;;24.70;99.90;;;;;;4990416;28;20208;-68
2021/09/11 10:51:34;;;;;;;4.57;3.92;;;24.90;99.90;;;;;;4991054;28;20235;-67
2021/09/11 10:54:10;;;;;;;4.90;4.03;;;25.40;99.90;;;;;;4990799;28;20212;-68
2021/09/11 10:56:40;;;;;;;5.95;3.63;;;26.00;99.90;;;;;;4990421;28;20208;-67
2021/09/11 10:59:27;;;;;;;3.85;3.28;;;26.20;99.90;;;;;;4990539;28;20205;-68
2021/09/11 11:01:56;;;;;;;3.67;3.38;;;26.30;99.90;;;;;;4991054;28;20212;-67
2021/09/11 11:04:23;;;;;;;4.07;3.50;;;26.20;99.90;;;;;;4990474;28;20292;-68
2021/09/11 11:06:52;;;;;;;4.40;2.72;;;26.50;99.90;;;;;;4990585;28;20211;-68
2021/09/11 11:09:19;;;;;;;4.82;3.47;;;26.40;99.90;;;;;;4990958;28;20571;-71
2021/09/11 11:11:47;;;;;;;5.05;3.53;;;26.20;99.90;;;;;;4991005;28;20651;-71
2021/09/11 11:14:15;;;;;;;4.22;3.08;;;26.30;99.90;;;;;;4990519;28;20212;-71
2021/09/11 11:16:48;;;;;;;3.65;2.78;;;26.30;99.90;;;;;;4990296;28;20629;-71
2021/09/11 11:19:25;;;;;;;3.05;2.67;;;26.20;99.90;;;;;;4990994;28;20220;-74
2021/09/11 11:21:59;;;;;;;4.60;3.03;;;26.50;99.90;;;;;;4990942;28;20648;-73
2021/09/11 11:24:26;;;;;;;8.23;2.97;;;26.60;99.90;;;;;;4979380;28;20305;-70
2021/09/11 11:26:53;;;;;;;4.20;3.70;;;26.30;99.90;;;;;;4986599;28;20275;-71
2021/09/11 11:29:21;;;;;;;3.55;3.25;;;26.50;99.90;;;;;;4989893;28;20283;-72
2021/09/11 11:31:49;;;;;;;3.38;2.88;;;26.30;99.90;;;;;;4990295;28;20240;-71
2021/09/11 11:34:17;;;;;;;4.30;3.35;;;26.40;99.90;;;;;;4993567;28;20204;-72
2021/09/11 11:36:52;;;;;;;3.53;3.00;;;25.90;99.90;;;;;;4993788;28;20272;-71
2021/09/11 11:39:24;;;;;;;4.50;3.13;;;25.40;99.90;;;;;;4994378;28;20208;-71
2021/09/11 11:42:10;;;;;;;4.35;3.15;;;25.90;99.90;;;;;;4988854;28;20676;-70
2021/09/11 11:44:42;;;;;;;6.47;2.95;;;26.40;99.90;;;;;;4993180;28;20201;-73
2021/09/11 11:47:23;;;;;;;6.10;2.95;;;26.80;99.90;;;;;;4994950;28;20205;-73
2021/09/11 11:49:50;;;;;;;4.72;3.33;;;26.80;99.90;;;;;;4993750;28;20309;-70
2021/09/11 11:52:18;;;;;;;2.83;2.63;;;26.50;99.90;;;;;;4994009;28;20205;-72
2021/09/11 11:54:47;;;;;;;2.80;2.55;;;26.20;99.90;;;;;;4994237;28;20212;-71
2021/09/11 11:57:16;;;;;;;3.22;2.92;;;26.40;99.90;;;;;;4993058;28;20211;-72
2021/09/11 11:59:44;;;;;;;3.85;3.00;;;26.50;99.90;;;;;;4992875;28;20726;-73
2021/09/11 12:02:20;;;;;;;4.20;2.83;;;27.00;99.90;;;;;;4993104;28;20209;-72
2021/09/11 12:04:48;;;;;;;7.57;3.42;;;27.10;99.90;;;;;;4993844;28;20205;-74
2021/09/11 12:07:32;;;;;;;4.90;3.70;;;27.00;99.90;;;;;;4993433;28;20231;-73
2021/09/11 12:10:03;;;;;;;3.53;2.60;;;26.70;99.90;;;;;;4993411;28;20209;-73
2021/09/11 12:12:44;;;;;;;2.50;2.30;;;26.50;99.90;;;;;;4988215;28;20255;-73
2021/09/11 12:15:12;;;;;;;5.20;2.90;;;26.10;99.90;;;;;;4993109;28;20675;-72
2021/09/11 12:17:56;;;;;;;6.80;3.00;;;26.00;99.90;;;;;;4992469;28;20683;-73
2021/09/11 12:20:25;;;;;;;3.45;2.55;;;26.20;99.90;;;;;;4990561;28;20236;-72
2021/09/11 12:23:09;;;;;;;3.00;2.63;;;25.90;99.90;;;;;;4992946;28;20201;-71
2021/09/11 12:25:55;;;;;;;3.17;2.90;;;26.10;99.90;;;;;;4992724;28;20205;-71
2021/09/11 12:28:41;;;;;;;4.63;2.58;;;25.70;99.90;;;;;;4988328;28;20340;-71
2021/09/11 12:31:14;;;;;;;3.47;2.88;;;25.90;99.90;;;;;;4992371;28;20224;-71
2021/09/11 12:33:48;;;;;;;2.67;2.47;;;26.40;99.90;;;;;;4992742;28;20296;-71
2021/09/11 12:36:24;;;;;;;4.68;3.75;;;26.50;99.90;;;;;;4992847;28;20255;-73
2021/09/11 12:38:52;;;;;;;4.18;3.55;;;26.40;99.90;;;;;;4993066;28;20208;-72
2021/09/11 12:41:20;;;;;;;2.70;2.40;;;25.80;99.90;;;;;;4993170;28;20209;-73
2021/09/11 12:43:47;;;;;;;3.08;2.78;;;26.10;99.90;;;;;;4992866;28;20209;-73
2021/09/11 12:46:30;;;;;;;4.30;2.88;;;26.70;99.90;;;;;;4992092;28;20270;-74
2021/09/11 12:48:59;;;;;;;7.15;3.85;;;26.80;99.90;;;;;;4982219;28;20270;-73
2021/09/11 12:51:26;;;;;;;3.15;2.92;;;26.70;99.90;;;;;;4992101;28;20248;-72
2021/09/11 12:53:53;;;;;;;4.43;2.60;;;26.80;99.90;;;;;;4992426;28;20256;-73
2021/09/11 12:56:23;;;;;;;3.28;2.53;;;26.90;99.90;;;;;;4992741;28;20279;-73